createdAt,value
2018-07-02T00:18:19.018Z,91.20
2018-07-02T00:20:48.960Z,92.10
2018-07-02T00:23:19.128Z,92.30
2018-07-02T00:25:48.674Z,88.50
2018-07-02T00:28:18.970Z,88.80
2018-07-02T00:30:48.220Z,90.00
2018-07-02T00:33:18.175Z,90.50
2018-07-02T00:35:47.444Z,88.30
2018-07-02T00:38:16.683Z,90.00
2018-07-02T00:58:31.420Z,94.10
2018-07-02T01:01:00.621Z,94.40
2018-07-02T01:06:00.139Z,94.50
2018-07-02T01:08:29.426Z,95.10
2018-07-02T01:10:58.808Z,95.70
2018-07-02T01:13:28.902Z,96.60
2018-07-02T01:15:59.292Z,96.40
2018-07-02T01:18:28.485Z,96.70
2018-07-02T01:20:57.726Z,97.90
2018-07-02T01:23:27.139Z,97.60
2018-07-02T01:25:56.368Z,98.30
2018-07-02T01:28:25.673Z,99.20
2018-07-02T01:30:55.030Z,99.30
2018-07-02T01:33:24.286Z,99.40
2018-07-02T01:35:53.512Z,99.90
2018-07-02T01:38:22.804Z,99.90
2018-07-02T01:40:52.729Z,99.90
2018-07-02T01:43:22.891Z,99.90
2018-07-02T01:45:52.820Z,99.90
2018-07-02T01:48:23.107Z,99.90
2018-07-02T01:50:55.312Z,99.90
2018-07-02T01:53:25.665Z,99.60
2018-07-02T01:55:55.105Z,99.90
2018-07-02T01:58:24.607Z,99.90
2018-07-02T02:00:53.858Z,99.90
2018-07-02T02:03:23.071Z,99.90
2018-07-02T02:05:52.387Z,99.90
2018-07-02T02:08:21.698Z,99.90
2018-07-02T02:10:51.506Z,99.90
2018-07-02T02:13:20.776Z,99.90
2018-07-02T02:15:50.675Z,99.90
2018-07-02T02:18:19.941Z,99.90
2018-07-02T02:20:49.386Z,99.90
2018-07-02T02:23:18.640Z,99.90
2018-07-02T02:25:48.590Z,99.90
2018-07-02T02:28:19.313Z,99.90
2018-07-02T02:48:35.532Z,99.90
2018-07-02T03:08:50.063Z,99.90
2018-07-02T03:11:19.290Z,99.90
2018-07-02T03:13:48.595Z,99.90
2018-07-02T03:16:17.872Z,99.90
2018-07-02T03:18:47.074Z,99.90
2018-07-02T03:21:16.391Z,99.90
2018-07-02T03:23:45.653Z,99.90
2018-07-02T03:44:01.684Z,99.90
2018-07-02T03:46:31.118Z,99.90
2018-07-02T03:49:00.349Z,99.90
2018-07-02T03:51:29.918Z,99.90
2018-07-02T03:53:59.196Z,99.90
2018-07-02T04:14:14.005Z,99.90
2018-07-02T04:16:43.386Z,99.90
2018-07-02T04:19:13.435Z,99.90
2018-07-02T04:21:44.707Z,99.90
2018-07-02T04:41:59.449Z,99.90
2018-07-02T04:44:28.690Z,99.90
2018-07-02T04:46:57.891Z,99.90
2018-07-02T04:49:27.897Z,99.90
2018-07-02T04:51:57.721Z,99.90
2018-07-02T05:12:13.038Z,99.90
2018-07-02T05:32:27.551Z,99.90
2018-07-02T05:34:56.854Z,98.10
2018-07-02T05:37:26.051Z,96.80
2018-07-02T05:39:56.030Z,97.90
2018-07-02T05:42:25.379Z,97.90
2018-07-02T05:44:54.581Z,98.60
2018-07-02T05:47:23.796Z,97.60
2018-07-02T05:49:53.062Z,97.50
2018-07-02T05:52:23.603Z,96.90
2018-07-02T05:54:52.872Z,96.90
2018-07-02T05:57:22.078Z,96.50
2018-07-02T05:59:51.883Z,98.20
2018-07-02T06:02:21.174Z,96.50
2018-07-02T06:04:52.135Z,97.40
2018-07-02T06:07:21.442Z,95.90
2018-07-02T06:09:50.710Z,96.50
2018-07-02T06:30:12.490Z,92.20
2018-07-02T06:32:42.090Z,93.50
2018-07-02T06:35:11.311Z,93.00
2018-07-02T06:37:41.454Z,93.50
2018-07-02T06:40:10.645Z,92.70
2018-07-02T07:00:25.126Z,93.50
2018-07-02T07:02:54.334Z,93.50
2018-07-02T07:05:24.776Z,91.90
2018-07-02T07:07:54.451Z,91.70
2018-07-02T07:10:23.665Z,90.70
2018-07-02T07:12:52.990Z,90.20
2018-07-02T07:33:07.333Z,83.30
2018-07-02T07:35:36.614Z,85.50
2018-07-02T07:38:05.956Z,86.20
2018-07-02T07:40:35.253Z,88.20
2018-07-02T07:43:04.550Z,86.80
2018-07-02T07:45:33.862Z,85.40
2018-07-02T07:48:03.142Z,86.10
2018-07-02T07:50:32.586Z,85.10
2018-07-02T07:53:02.386Z,84.20
2018-07-02T07:55:31.946Z,85.10
2018-07-02T07:58:01.118Z,88.40
2018-07-02T08:00:30.444Z,84.60
2018-07-02T08:02:59.697Z,85.30
2018-07-02T08:05:29.007Z,86.70
2018-07-02T08:07:58.326Z,84.40
2018-07-02T08:10:28.002Z,87.80
2018-07-02T08:12:57.242Z,83.00
2018-07-02T08:15:32.546Z,85.20
2018-07-02T08:18:01.739Z,83.40
2018-07-02T08:20:30.994Z,83.00
2018-07-02T08:23:01.139Z,84.40
2018-07-02T08:25:30.458Z,82.20
2018-07-02T08:28:00.779Z,81.40
2018-07-02T08:30:31.735Z,83.00
2018-07-02T08:33:01.053Z,80.70
2018-07-02T08:35:30.241Z,83.80
2018-07-02T08:37:59.504Z,82.00
2018-07-02T08:40:29.714Z,81.70
2018-07-02T08:42:59.151Z,83.10
2018-07-02T08:45:28.380Z,83.00
2018-07-02T08:47:57.650Z,83.10
2018-07-02T08:50:27.985Z,80.60
2018-07-02T08:52:57.338Z,79.20
2018-07-02T08:55:26.658Z,83.20
2018-07-02T08:57:56.490Z,80.10
2018-07-02T09:00:25.711Z,82.30
2018-07-02T09:02:55.469Z,80.20
2018-07-02T09:05:24.743Z,83.50
2018-07-02T09:25:38.916Z,84.70
2018-07-02T09:28:08.869Z,81.90
2018-07-02T09:30:38.887Z,84.40
2018-07-02T09:33:08.770Z,83.00
2018-07-02T09:35:38.143Z,82.80
2018-07-02T09:38:08.014Z,84.60
2018-07-02T09:40:37.278Z,80.90
2018-07-02T09:43:06.732Z,81.50
2018-07-02T09:45:35.912Z,81.10
2018-07-02T09:48:05.811Z,82.60
2018-07-02T09:50:35.931Z,83.40
2018-07-02T09:53:05.486Z,82.70
2018-07-02T09:55:34.793Z,82.90
2018-07-02T09:58:04.119Z,82.30
2018-07-02T10:00:36.667Z,83.00
2018-07-02T10:03:07.927Z,82.00
2018-07-02T10:05:37.145Z,81.80
2018-07-02T10:08:07.609Z,85.10
2018-07-02T10:10:37.609Z,82.40
2018-07-02T10:30:52.412Z,80.70
2018-07-02T10:33:21.679Z,79.30
2018-07-02T10:38:19.752Z,79.40
2018-07-02T10:40:49.034Z,80.00
2018-07-02T10:43:18.322Z,78.10
2018-07-02T10:45:47.642Z,77.60
2018-07-02T10:48:17.553Z,77.80
2018-07-02T10:50:47.341Z,78.20
2018-07-02T10:53:16.610Z,78.80
2018-07-02T10:55:46.050Z,76.20
2018-07-02T10:58:15.291Z,76.30
2018-07-02T11:00:44.570Z,77.40
2018-07-02T11:03:13.921Z,75.50
2018-07-02T11:05:43.179Z,76.00
2018-07-02T11:08:13.511Z,73.30
2018-07-02T11:10:42.745Z,74.40
2018-07-02T11:15:42.848Z,73.00
2018-07-02T11:18:12.111Z,72.50
2018-07-02T11:20:41.994Z,72.00
2018-07-02T11:23:11.300Z,71.80
2018-07-02T11:25:41.963Z,70.80
2018-07-02T11:28:11.198Z,71.40
2018-07-02T11:30:40.456Z,69.10
2018-07-02T11:33:09.706Z,70.20
2018-07-02T11:35:39.008Z,70.90
2018-07-02T11:38:08.214Z,69.80
2018-07-02T11:40:38.040Z,69.50
2018-07-02T11:43:07.289Z,71.30
2018-07-02T11:45:36.563Z,68.10
2018-07-02T11:48:05.765Z,68.20
2018-07-02T11:50:35.111Z,65.70
2018-07-02T11:53:04.979Z,67.00
2018-07-02T11:55:34.282Z,68.00
2018-07-02T11:58:03.450Z,67.50
2018-07-02T12:00:32.679Z,68.50
2018-07-02T12:20:48.660Z,68.10
2018-07-02T12:23:17.918Z,65.60
2018-07-02T12:25:47.933Z,66.50
2018-07-02T12:28:17.176Z,67.90
2018-07-02T12:30:47.085Z,65.80
2018-07-02T12:33:16.494Z,65.30
2018-07-02T12:35:46.868Z,67.50
2018-07-02T12:38:16.178Z,66.70
2018-07-02T12:40:45.539Z,66.70
2018-07-02T12:43:14.754Z,63.60
2018-07-02T12:45:44.724Z,66.70
2018-07-02T12:48:14.035Z,66.10
2018-07-02T12:50:43.394Z,67.40
2018-07-02T12:53:13.505Z,64.80
2018-07-02T12:55:42.665Z,65.90
2018-07-02T12:58:12.516Z,64.20
2018-07-02T13:00:42.558Z,63.40
2018-07-02T13:03:11.749Z,61.10
2018-07-02T13:05:41.509Z,61.80
2018-07-02T13:08:10.760Z,59.30
2018-07-02T13:10:40.122Z,59.40
2018-07-02T13:13:09.837Z,60.10
2018-07-02T13:15:39.148Z,59.20
2018-07-02T13:18:08.385Z,59.00
2018-07-02T13:20:37.666Z,59.10
2018-07-02T13:23:06.905Z,59.70
2018-07-02T13:25:36.130Z,57.10
2018-07-02T13:28:05.377Z,60.50
2018-07-02T13:30:34.612Z,59.10
2018-07-02T13:33:03.822Z,56.40
2018-07-02T13:35:33.800Z,59.20
2018-07-02T13:40:32.092Z,55.20
2018-07-02T13:43:01.852Z,57.30
2018-07-02T13:45:31.734Z,57.80
2018-07-02T13:48:01.048Z,54.00
2018-07-02T13:50:30.404Z,51.40
2018-07-02T13:53:00.087Z,52.30
2018-07-02T13:55:29.989Z,51.70
2018-07-02T13:57:59.924Z,51.50
2018-07-02T14:00:29.182Z,51.00
2018-07-02T14:02:59.911Z,52.80
2018-07-02T14:05:29.145Z,54.20
2018-07-02T14:07:58.447Z,54.50
2018-07-02T14:10:27.752Z,55.70
2018-07-02T14:12:57.069Z,57.40
2018-07-02T14:15:26.414Z,58.40
2018-07-02T14:17:55.688Z,56.60
2018-07-02T14:20:26.226Z,56.50
2018-07-02T14:22:55.545Z,57.50
2018-07-02T14:25:24.805Z,56.50
2018-07-02T14:27:54.089Z,56.00
2018-07-02T14:30:24.540Z,57.50
2018-07-02T14:32:53.806Z,58.70
2018-07-02T14:35:23.079Z,57.00
2018-07-02T14:37:52.316Z,56.10
2018-07-02T14:58:00.581Z,48.20
2018-07-02T15:00:29.812Z,47.20
2018-07-02T15:02:59.031Z,46.50
2018-07-02T15:05:28.421Z,46.60
2018-07-02T15:07:57.808Z,45.80
2018-07-02T15:10:27.053Z,45.10
2018-07-02T15:12:57.978Z,43.80
2018-07-02T15:15:28.050Z,43.20
2018-07-02T15:17:57.334Z,43.40
2018-07-02T15:20:26.563Z,41.80
2018-07-02T15:22:55.722Z,41.90
2018-07-02T15:43:11.158Z,45.00
2018-07-02T15:48:09.939Z,43.10
2018-07-02T15:50:39.227Z,43.10
2018-07-02T15:53:08.571Z,43.20
2018-07-02T15:55:37.785Z,44.10
2018-07-02T15:58:07.402Z,44.60
2018-07-02T16:00:36.697Z,46.00
2018-07-02T16:20:51.748Z,50.80
2018-07-02T16:41:06.035Z,54.90
2018-07-02T16:43:35.300Z,54.20
2018-07-02T16:46:04.653Z,54.20
2018-07-02T16:48:34.583Z,54.40
2018-07-02T16:51:03.990Z,54.40
2018-07-02T16:53:33.269Z,54.60
2018-07-02T16:56:02.676Z,54.50
2018-07-02T16:58:32.693Z,54.50
2018-07-02T17:01:01.987Z,54.60
2018-07-02T17:03:32.675Z,56.30
2018-07-02T17:06:01.975Z,54.90
2018-07-02T17:08:31.764Z,54.90
2018-07-02T17:11:02.057Z,54.90
2018-07-02T17:31:16.654Z,56.50
2018-07-02T17:33:46.205Z,57.10
2018-07-02T17:36:15.817Z,57.70
2018-07-02T17:38:45.371Z,57.00
2018-07-02T17:41:16.198Z,58.20
2018-07-02T17:43:46.963Z,58.50
2018-07-02T17:46:16.358Z,58.20
2018-07-02T17:48:45.714Z,59.70
2018-07-02T17:51:14.881Z,59.50
2018-07-02T17:53:44.189Z,58.30
2018-07-02T17:56:14.143Z,57.40
2018-07-02T17:58:45.184Z,57.40
2018-07-02T18:01:14.529Z,58.10
2018-07-02T18:03:43.914Z,57.90
2018-07-02T18:06:13.431Z,59.70
2018-07-02T18:08:43.103Z,58.50
2018-07-02T18:11:12.802Z,58.70
2018-07-02T18:13:42.709Z,58.00
2018-07-02T18:33:57.295Z,61.90
2018-07-02T18:36:26.572Z,63.70
2018-07-02T18:38:56.161Z,63.30
2018-07-02T18:41:26.936Z,64.20
2018-07-02T18:43:56.348Z,64.10
2018-07-02T18:46:26.178Z,64.40
2018-07-02T18:48:55.482Z,64.50
2018-07-02T18:51:24.810Z,62.80
2018-07-02T18:53:54.651Z,63.90
2018-07-02T18:56:24.057Z,62.70
2018-07-02T18:58:53.363Z,66.30
2018-07-02T19:01:23.422Z,66.50
2018-07-02T19:03:52.761Z,66.70
2018-07-02T19:24:10.768Z,71.70
2018-07-02T19:26:41.166Z,72.60
2018-07-02T19:29:10.585Z,72.10
2018-07-02T19:31:40.540Z,73.80
2018-07-02T19:54:25.182Z,84.90
2018-07-02T19:56:54.661Z,81.00
2018-07-02T19:59:24.258Z,77.90
2018-07-02T20:01:54.198Z,81.10
2018-07-02T20:22:09.080Z,89.10
2018-07-02T20:24:39.095Z,86.90
2018-07-02T20:27:08.428Z,85.80
2018-07-02T20:29:37.808Z,82.40
2018-07-02T20:32:07.170Z,88.20
2018-07-02T20:34:36.387Z,90.20
2018-07-02T20:37:05.898Z,91.00
2018-07-02T20:39:35.097Z,90.90
2018-07-02T20:42:05.230Z,89.00
2018-07-02T20:44:35.218Z,86.40
2018-07-02T20:47:04.540Z,82.30
2018-07-02T20:49:33.829Z,88.40
2018-07-02T20:52:04.110Z,89.70
2018-07-02T20:54:33.640Z,90.50
2018-07-02T20:57:03.100Z,90.60
2018-07-02T20:59:32.396Z,91.30
2018-07-02T21:02:01.693Z,91.00
2018-07-02T21:04:31.212Z,92.30
2018-07-02T21:09:29.940Z,86.30
2018-07-02T21:11:59.277Z,82.70
2018-07-02T21:14:28.555Z,83.30
2018-07-02T21:16:57.781Z,83.00
2018-07-02T21:19:27.309Z,82.80
2018-07-02T21:21:57.210Z,81.60
2018-07-02T21:24:27.429Z,88.90
2018-07-02T21:26:56.699Z,89.50
2018-07-02T21:29:26.119Z,91.00
2018-07-02T21:31:55.340Z,90.70
2018-07-02T21:34:24.572Z,87.80
2018-07-02T21:36:53.887Z,90.50
2018-07-02T21:39:23.113Z,88.80
2018-07-02T21:41:52.812Z,84.20
2018-07-02T21:44:22.737Z,85.10
2018-07-02T21:46:51.884Z,85.10
2018-07-02T21:49:21.134Z,88.30
2018-07-02T21:51:50.533Z,88.90
2018-07-02T21:54:20.658Z,90.90
2018-07-02T22:14:34.949Z,88.30
2018-07-02T22:17:04.470Z,91.80
2018-07-02T22:19:33.824Z,91.90
2018-07-02T22:22:03.142Z,91.10
2018-07-02T22:24:32.349Z,90.20
2018-07-02T22:27:01.617Z,88.50
2018-07-02T22:29:30.973Z,90.30
2018-07-02T22:32:00.325Z,87.70
2018-07-02T22:34:29.622Z,87.70
2018-07-02T22:36:59.011Z,90.90
2018-07-02T22:39:28.259Z,90.50
2018-07-02T22:41:57.551Z,91.00
2018-07-02T22:44:26.897Z,91.50
2018-07-02T22:46:56.380Z,90.90
2018-07-02T22:49:26.429Z,92.10
2018-07-02T22:51:56.007Z,93.30
2018-07-02T22:54:25.314Z,93.90
2018-07-02T22:56:56.869Z,93.50
2018-07-02T23:17:10.438Z,97.70
2018-07-02T23:19:40.350Z,99.10
2018-07-02T23:22:10.233Z,99.10
2018-07-02T23:24:39.460Z,98.10
2018-07-02T23:27:08.859Z,96.20
2018-07-02T23:29:38.310Z,97.60
2018-07-02T23:32:08.231Z,98.80
2018-07-02T23:34:39.425Z,98.70
2018-07-02T23:37:08.685Z,99.80
2018-07-02T23:39:37.870Z,98.60
2018-07-02T23:42:08.570Z,99.90
2018-07-02T23:44:37.846Z,99.90
2018-07-02T23:47:07.077Z,99.90
2018-07-02T23:49:36.342Z,99.90
2018-07-02T23:52:06.665Z,99.90
2018-07-02T23:54:36.026Z,99.90
2018-07-02T23:57:05.289Z,99.90
2018-07-02T23:59:34.966Z,99.90
